Terminal Aerodrome Forecast
Issued by NWS

Home | Current Version | Previous Version | Text Only | Print | Product List | Glossary On
Versions: 1 2 3 4 5 6 7 8 9 10 11 12 13 14 15 16
000
FTUS43 KLSX 212200 AAB
TAFCPS
TAF AMD
KCPS 212231Z 2123/2218 25010KT P6SM VCSH OVC040
      TEMPO 2123/2124 5SM -SHRA OVC030
     FM220000 26009KT 6SM -SHRA VCTS SCT020 OVC035CB
     FM220400 31010KT P6SM BKN030
     FM220700 32012KT P6SM SKC
     FM221500 35013KT P6SM SKC=

USA.gov is the U.S. government's official web portal to all federal, state and local government web resources and services.